Time,TemperatureF,DewpointF,PressureIn,WindDirection,WindDirectionDegrees,WindSpeedMPH,WindSpeedGustMPH,Humidity,HourlyPrecipIn,Conditions,Clouds,dailyrainin,SoftwareType,DateUTC
2013-01-17 00:10:00,39.2,31.9,30.27,South,178,0.0,0.0,75,0.00,,,0.00,Wunderground v.1.15,2013-01-17 08:10:00,
2013-01-17 00:20:00,40.2,32.6,30.27,South,178,0.0,0.0,74,0.00,,,0.00,Wunderground v.1.15,2013-01-17 08:20:00,
2013-01-17 00:25:00,40.4,32.4,30.27,South,178,0.0,0.0,73,0.00,,,0.00,Wunderground v.1.15,2013-01-17 08:25:00,
2013-01-17 00:44:00,40.7,32.4,30.28,South,178,0.0,0.0,72,0.00,,,0.00,Wunderground v.1.15,2013-01-17 08:44:00,
2013-01-17 01:00:00,40.5,32.2,30.28,South,178,0.0,0.0,72,0.00,,,0.00,Wunderground v.1.15,2013-01-17 09:00:00,
2013-01-17 01:15:00,39.7,31.8,30.27,South,178,0.0,0.0,73,0.00,,,0.00,Wunderground v.1.15,2013-01-17 09:15:00,
2013-01-17 01:24:00,40.5,32.2,30.27,South,173,0.0,0.0,72,0.00,,,0.00,Wunderground v.1.15,2013-01-17 09:24:00,
2013-01-17 01:45:00,40.8,32.1,30.28,SE,126,0.0,0.0,71,0.00,,,0.00,Wunderground v.1.15,2013-01-17 09:45:00,
2013-01-17 01:50:00,40.8,32.1,30.28,SE,126,0.0,0.0,71,0.00,,,0.00,Wunderground v.1.15,2013-01-17 09:50:00,
2013-01-17 02:10:00,40.9,32.2,30.28,ENE,64,0.0,0.0,71,0.00,,,0.00,Wunderground v.1.15,2013-01-17 10:10:00,
2013-01-17 02:20:00,40.6,31.9,30.28,ENE,64,0.0,0.0,71,0.00,,,0.00,Wunderground v.1.15,2013-01-17 10:20:00,
2013-01-17 02:35:00,39.6,31.7,30.27,ENE,64,0.0,0.0,73,0.00,,,0.00,Wunderground v.1.15,2013-01-17 10:35:00,
2013-01-17 02:44:00,39.5,31.9,30.27,NE,43,0.0,0.0,74,0.00,,,0.00,Wunderground v.1.15,2013-01-17 10:44:00,
2013-01-17 02:50:00,39.5,31.9,30.27,NE,43,0.0,0.0,74,0.00,,,0.00,Wunderground v.1.15,2013-01-17 10:50:00,
2013-01-17 03:05:00,39.6,32.0,30.27,NE,43,0.0,0.0,74,0.00,,,0.00,Wunderground v.1.15,2013-01-17 11:05:00,
2013-01-17 03:15:00,40.1,32.1,30.26,SSW,211,0.0,0.0,73,0.00,,,0.00,Wunderground v.1.15,2013-01-17 11:15:00,
2013-01-17 03:20:00,40.3,32.3,30.26,ESE,103,0.0,0.0,73,0.00,,,0.00,Wunderground v.1.15,2013-01-17 11:20:00,
2013-01-17 03:35:00,40.0,32.0,30.26,ESE,103,0.0,0.0,73,0.00,,,0.00,Wunderground v.1.15,2013-01-17 11:35:00,
2013-01-17 03:44:00,39.5,31.9,30.25,ESE,103,0.0,0.0,74,0.00,,,0.00,Wunderground v.1.15,2013-01-17 11:44:00,
2013-01-17 04:00:00,39.2,31.9,30.25,ESE,103,0.0,0.0,75,0.00,,,0.00,Wunderground v.1.15,2013-01-17 12:00:00,
2013-01-17 04:05:00,39.2,31.9,30.25,ESE,103,0.0,0.0,75,0.00,,,0.00,Wunderground v.1.15,2013-01-17 12:05:00,
2013-01-17 04:15:00,38.9,32.0,30.25,ESE,103,0.0,0.0,76,0.00,,,0.00,Wunderground v.1.15,2013-01-17 12:15:00,
2013-01-17 04:25:00,38.8,31.9,30.25,ESE,103,0.0,0.0,76,0.00,,,0.00,Wunderground v.1.15,2013-01-17 12:25:00,
2013-01-17 04:40:00,38.9,32.0,30.25,ESE,103,0.0,0.0,76,0.00,,,0.00,Wunderground v.1.15,2013-01-17 12:40:00,
2013-01-17 04:50:00,38.8,31.9,30.25,ESE,103,0.0,0.0,76,0.00,,,0.00,Wunderground v.1.15,2013-01-17 12:50:00,
2013-01-17 05:00:00,38.8,31.9,30.24,ESE,103,0.0,0.0,76,0.00,,,0.00,Wunderground v.1.15,2013-01-17 13:00:00,
2013-01-17 05:10:00,38.8,31.9,30.24,ESE,103,0.0,0.0,76,0.00,,,0.00,Wunderground v.1.15,2013-01-17 13:10:00,
2013-01-17 05:15:00,38.7,31.8,30.24,ESE,103,0.0,0.0,76,0.00,,,0.00,Wunderground v.1.15,2013-01-17 13:15:00,
2013-01-17 05:25:00,38.8,31.9,30.24,ESE,103,0.0,0.0,76,0.00,,,0.00,Wunderground v.1.15,2013-01-17 13:25:00,
2013-01-17 05:35:00,38.7,32.1,30.24,ESE,103,0.0,0.0,77,0.00,,,0.00,Wunderground v.1.15,2013-01-17 13:35:00,
2013-01-17 05:40:00,38.4,31.8,30.24,ESE,103,0.0,0.0,77,0.00,,,0.00,Wunderground v.1.15,2013-01-17 13:40:00,
2013-01-17 05:55:00,38.4,31.8,30.24,ESE,103,0.0,0.0,77,0.00,,,0.00,Wunderground v.1.15,2013-01-17 13:55:00,
2013-01-17 06:10:00,38.1,31.5,30.24,ESE,103,0.0,0.0,77,0.00,,,0.00,Wunderground v.1.15,2013-01-17 14:10:00,
2013-01-17 06:35:00,38.3,31.7,30.24,ESE,103,0.0,0.0,77,0.00,,,0.00,Wunderground v.1.15,2013-01-17 14:35:00,
2013-01-17 06:45:00,38.0,31.4,30.24,ESE,103,0.0,0.0,77,0.00,,,0.00,Wunderground v.1.15,2013-01-17 14:45:00,
2013-01-17 06:55:00,38.2,31.9,30.24,ESE,103,0.0,0.0,78,0.00,,,0.00,Wunderground v.1.15,2013-01-17 14:55:00,
2013-01-17 07:05:00,38.1,31.5,30.24,ESE,103,0.0,0.0,77,0.00,,,0.00,Wunderground v.1.15,2013-01-17 15:05:00,
2013-01-17 07:25:00,37.6,31.7,30.25,ESE,103,0.0,0.0,79,0.00,,,0.00,Wunderground v.1.15,2013-01-17 15:25:00,
2013-01-17 07:34:00,37.6,31.7,30.25,ESE,103,0.0,0.0,79,0.00,,,0.00,Wunderground v.1.15,2013-01-17 15:34:00,
2013-01-17 07:45:00,37.4,31.5,30.25,ESE,103,0.0,0.0,79,0.00,,,0.00,Wunderground v.1.15,2013-01-17 15:45:00,
2013-01-17 08:45:00,44.0,34.5,30.26,SE,127,0.0,0.0,69,0.00,,,0.00,Wunderground v.1.15,2013-01-17 16:45:00,
2013-01-17 08:54:00,45.2,34.5,30.27,SSE,155,0.0,0.0,66,0.00,,,0.00,Wunderground v.1.15,2013-01-17 16:54:00,
2013-01-17 09:05:00,46.4,34.5,30.27,SSE,155,0.0,0.0,63,0.00,,,0.00,Wunderground v.1.15,2013-01-17 17:05:00,
2013-01-17 09:10:00,47.0,34.6,30.27,ENE,69,0.0,0.0,62,0.00,,,0.00,Wunderground v.1.15,2013-01-17 17:10:00,
2013-01-17 09:30:00,48.6,34.0,30.27,ENE,60,0.0,0.0,57,0.00,,,0.00,Wunderground v.1.15,2013-01-17 17:30:00,
2013-01-17 09:45:00,49.5,34.4,30.27,NE,40,0.0,3.0,56,0.00,,,0.00,Wunderground v.1.15,2013-01-17 17:45:00,
2013-01-17 10:15:00,50.5,35.8,30.27,NNE,30,1.0,1.0,57,0.00,,,0.00,Wunderground v.1.15,2013-01-17 18:15:00,
2013-01-17 10:24:00,51.4,36.2,30.27,NE,54,1.0,1.0,56,0.00,,,0.00,Wunderground v.1.15,2013-01-17 18:24:00,
2013-01-17 10:35:00,52.6,36.9,30.26,ENE,57,1.0,1.0,55,0.00,,,0.00,Wunderground v.1.15,2013-01-17 18:35:00,
2013-01-17 10:40:00,53.1,37.3,30.26,NE,45,0.0,0.0,55,0.00,,,0.00,Wunderground v.1.15,2013-01-17 18:40:00,
2013-01-17 11:05:00,54.3,36.5,30.25,ENE,63,2.0,2.0,51,0.00,,,0.00,Wunderground v.1.15,2013-01-17 19:05:00,
2013-01-17 11:15:00,55.4,35.5,30.24,ENE,75,3.0,3.0,47,0.00,,,0.00,Wunderground v.1.15,2013-01-17 19:15:00,
2013-01-17 11:20:00,55.5,35.0,30.24,ENE,61,4.0,4.0,46,0.00,,,0.00,Wunderground v.1.15,2013-01-17 19:20:00,
2013-01-17 11:30:00,56.3,35.2,30.23,East,87,3.0,4.0,45,0.00,,,0.00,Wunderground v.1.15,2013-01-17 19:30:00,
2013-01-17 11:35:00,56.0,34.9,30.23,NE,47,4.0,4.0,45,0.00,,,0.00,Wunderground v.1.15,2013-01-17 19:35:00,
2013-01-17 11:45:00,55.9,35.4,30.23,ENE,61,4.0,5.0,46,0.00,,,0.00,Wunderground v.1.15,2013-01-17 19:45:00,
2013-01-17 11:50:00,56.1,36.1,30.23,ENE,59,4.0,5.0,47,0.00,,,0.00,Wunderground v.1.15,2013-01-17 19:50:00,
2013-01-17 12:00:00,56.6,36.0,30.22,ENE,67,4.0,4.0,46,0.00,,,0.00,Wunderground v.1.15,2013-01-17 20:00:00,
2013-01-17 12:05:00,57.2,36.0,30.22,NNE,24,3.0,4.0,45,0.00,,,0.00,Wunderground v.1.15,2013-01-17 20:05:00,
2013-01-17 12:15:00,57.2,35.5,30.21,East,89,4.0,7.0,44,0.00,,,0.00,Wunderground v.1.15,2013-01-17 20:15:00,
2013-01-17 12:25:00,57.1,35.4,30.21,North,355,5.0,6.0,44,0.00,,,0.00,Wunderground v.1.15,2013-01-17 20:25:00,
2013-01-17 12:35:00,57.2,35.5,30.21,ENE,64,6.0,6.0,44,0.00,,,0.00,Wunderground v.1.15,2013-01-17 20:35:00,
2013-01-17 13:05:00,57.7,35.3,30.20,NE,49,5.0,5.0,43,0.00,,,0.00,Wunderground v.1.15,2013-01-17 21:05:00,
2013-01-17 13:14:00,58.0,35.6,30.19,East,94,4.0,4.0,43,0.00,,,0.00,Wunderground v.1.15,2013-01-17 21:14:00,
2013-01-17 13:24:00,58.4,35.4,30.19,NNE,33,4.0,4.0,42,0.00,,,0.00,Wunderground v.1.15,2013-01-17 21:24:00,
2013-01-17 13:30:00,58.3,34.7,30.19,ENE,69,4.0,4.0,41,0.00,,,0.00,Wunderground v.1.15,2013-01-17 21:30:00,
2013-01-17 13:40:00,58.6,34.3,30.19,NE,38,4.0,8.0,40,0.00,,,0.00,Wunderground v.1.15,2013-01-17 21:40:00,
2013-01-17 13:45:00,58.6,35.0,30.18,ENE,63,4.0,10.0,41,0.00,,,0.00,Wunderground v.1.15,2013-01-17 21:45:00,
2013-01-17 13:50:00,58.7,34.4,30.18,East,93,5.0,5.0,40,0.00,,,0.00,Wunderground v.1.15,2013-01-17 21:50:00,
2013-01-17 14:05:00,59.5,33.2,30.18,ENE,59,4.0,4.0,37,0.00,,,0.00,Wunderground v.1.15,2013-01-17 22:05:00,
2013-01-17 14:15:00,59.0,33.4,30.18,ENE,72,4.0,11.0,38,0.00,,,0.00,Wunderground v.1.15,2013-01-17 22:15:00,
2013-01-17 14:20:00,58.7,33.1,30.18,NNE,32,5.0,5.0,38,0.00,,,0.00,Wunderground v.1.15,2013-01-17 22:20:00,
2013-01-17 14:25:00,58.6,33.7,30.17,ENE,61,5.0,5.0,39,0.00,,,0.00,Wunderground v.1.15,2013-01-17 22:25:00,
2013-01-17 14:30:00,58.5,34.2,30.17,ENE,76,5.0,5.0,40,0.00,,,0.00,Wunderground v.1.15,2013-01-17 22:30:00,
2013-01-17 14:40:00,58.9,34.0,30.17,NE,44,4.0,4.0,39,0.00,,,0.00,Wunderground v.1.15,2013-01-17 22:40:00,
2013-01-17 14:45:00,58.9,34.0,30.17,NE,41,4.0,5.0,39,0.00,,,0.00,Wunderground v.1.15,2013-01-17 22:45:00,
2013-01-17 14:50:00,58.7,33.1,30.17,NE,44,5.0,5.0,38,0.00,,,0.00,Wunderground v.1.15,2013-01-17 22:50:00,
2013-01-17 15:05:00,59.0,34.7,30.17,ENE,77,3.0,3.0,40,0.00,,,0.00,Wunderground v.1.15,2013-01-17 23:05:00,
2013-01-17 15:10:00,59.2,32.2,30.17,ENE,59,2.0,3.0,36,0.00,,,0.00,Wunderground v.1.15,2013-01-17 23:10:00,
2013-01-17 15:20:00,58.9,34.0,30.17,ENE,70,3.0,3.0,39,0.00,,,0.00,Wunderground v.1.15,2013-01-17 23:20:00,
2013-01-17 15:25:00,58.9,34.0,30.17,NE,56,3.0,3.0,39,0.00,,,0.00,Wunderground v.1.15,2013-01-17 23:25:00,
2013-01-17 15:35:00,58.9,34.0,30.17,NE,47,2.0,4.0,39,0.00,,,0.00,Wunderground v.1.15,2013-01-17 23:35:00,
2013-01-17 15:44:00,58.1,33.9,30.17,ENE,72,3.0,4.0,40,0.00,,,0.00,Wunderground v.1.15,2013-01-17 23:44:00,
2013-01-17 15:50:00,57.7,33.5,30.17,ENE,76,3.0,3.0,40,0.00,,,0.00,Wunderground v.1.15,2013-01-17 23:50:00,
2013-01-17 16:00:00,57.3,33.2,30.17,East,79,2.0,2.0,40,0.00,,,0.00,Wunderground v.1.15,2013-01-18 00:00:00,
2013-01-17 16:10:00,56.8,33.9,30.17,NNE,28,2.0,3.0,42,0.00,,,0.00,Wunderground v.1.15,2013-01-18 00:10:00,
2013-01-17 16:15:00,56.6,33.2,30.17,ENE,57,2.0,3.0,41,0.00,,,0.00,Wunderground v.1.15,2013-01-18 00:15:00,
2013-01-17 16:20:00,56.4,33.6,30.17,East,100,3.0,6.0,42,0.00,,,0.00,Wunderground v.1.15,2013-01-18 00:20:00,
2013-01-17 16:25:00,56.3,33.5,30.17,NE,50,2.0,6.0,42,0.00,,,0.00,Wunderground v.1.15,2013-01-18 00:25:00,
2013-01-17 16:35:00,55.9,33.1,30.17,ESE,123,1.0,1.0,42,0.00,,,0.00,Wunderground v.1.15,2013-01-18 00:35:00,
2013-01-17 16:45:00,55.6,32.8,30.17,NE,55,1.0,2.0,42,0.00,,,0.00,Wunderground v.1.15,2013-01-18 00:45:00,
2013-01-17 17:00:00,55.0,32.9,30.17,ENE,75,1.0,1.0,43,0.00,,,0.00,Wunderground v.1.15,2013-01-18 01:00:00,
2013-01-17 17:10:00,54.5,32.4,30.17,ESE,120,1.0,1.0,43,0.00,,,0.00,Wunderground v.1.15,2013-01-18 01:10:00,
2013-01-17 17:20:00,54.1,32.6,30.17,SE,131,0.0,0.0,44,0.00,,,0.00,Wunderground v.1.15,2013-01-18 01:20:00,
2013-01-17 17:25:00,53.9,32.5,30.17,East,88,1.0,2.0,44,0.00,,,0.00,Wunderground v.1.15,2013-01-18 01:25:00,
2013-01-17 17:30:00,53.8,32.4,30.17,ESE,123,2.0,4.0,44,0.00,,,0.00,Wunderground v.1.15,2013-01-18 01:30:00,
2013-01-17 17:40:00,53.5,32.7,30.18,ESE,107,3.0,3.0,45,0.00,,,0.00,Wunderground v.1.15,2013-01-18 01:40:00,
2013-01-17 17:50:00,53.2,33.5,30.18,ESE,110,2.0,2.0,47,0.00,,,0.00,Wunderground v.1.15,2013-01-18 01:50:00,
2013-01-17 18:00:00,52.8,33.6,30.18,ESE,106,2.0,2.0,48,0.00,,,0.00,Wunderground v.1.15,2013-01-18 02:00:00,
2013-01-17 18:10:00,52.5,34.4,30.18,ESE,105,2.0,2.0,50,0.00,,,0.00,Wunderground v.1.15,2013-01-18 02:10:00,
2013-01-17 18:20:00,52.1,34.5,30.18,ESE,104,1.0,1.0,51,0.00,,,0.00,Wunderground v.1.15,2013-01-18 02:20:00,
2013-01-17 18:30:00,51.9,34.3,30.18,ESE,114,1.0,2.0,51,0.00,,,0.00,Wunderground v.1.15,2013-01-18 02:30:00,
2013-01-17 18:45:00,51.3,34.7,30.18,East,97,0.0,0.0,53,0.00,,,0.00,Wunderground v.1.15,2013-01-18 02:45:00,
2013-01-17 18:55:00,50.9,34.8,30.18,East,97,0.0,0.0,54,0.00,,,0.00,Wunderground v.1.15,2013-01-18 02:55:00,
2013-01-17 19:00:00,50.7,35.1,30.18,East,97,0.0,0.0,55,0.00,,,0.00,Wunderground v.1.15,2013-01-18 03:00:00,
2013-01-17 19:10:00,50.3,35.2,30.18,ESE,105,0.0,0.0,56,0.00,,,0.00,Wunderground v.1.15,2013-01-18 03:10:00,
2013-01-17 19:30:00,49.8,35.2,30.18,ESE,111,1.0,1.0,57,0.00,,,0.00,Wunderground v.1.15,2013-01-18 03:30:00,
2013-01-17 19:35:00,49.7,35.1,30.18,ESE,119,1.0,1.0,57,0.00,,,0.00,Wunderground v.1.15,2013-01-18 03:35:00,
2013-01-17 19:50:00,50.1,35.0,30.18,ESE,112,2.0,2.0,56,0.00,,,0.00,Wunderground v.1.15,2013-01-18 03:50:00,
2013-01-17 19:55:00,50.2,35.1,30.18,ESE,112,1.0,2.0,56,0.00,,,0.00,Wunderground v.1.15,2013-01-18 03:55:00,
2013-01-17 20:05:00,50.1,35.0,30.18,ESE,109,1.0,2.0,56,0.00,,,0.00,Wunderground v.1.15,2013-01-18 04:05:00,
2013-01-17 20:10:00,50.0,35.4,30.18,ESE,114,0.0,0.0,57,0.00,,,0.00,Wunderground v.1.15,2013-01-18 04:10:00,
2013-01-17 20:20:00,49.6,35.0,30.18,ESE,115,0.0,0.0,57,0.00,,,0.00,Wunderground v.1.15,2013-01-18 04:20:00,
2013-01-17 20:25:00,49.4,35.2,30.17,ESE,115,0.0,0.0,58,0.00,,,0.00,Wunderground v.1.15,2013-01-18 04:25:00,
2013-01-17 20:45:00,47.5,34.7,30.17,ESE,115,0.0,0.0,61,0.00,,,0.00,Wunderground v.1.15,2013-01-18 04:45:00,
2013-01-17 20:55:00,47.0,34.6,30.17,ESE,115,0.0,0.0,62,0.00,,,0.00,Wunderground v.1.15,2013-01-18 04:55:00,
2013-01-17 21:14:00,46.2,34.3,30.18,ESE,115,0.0,0.0,63,0.00,,,0.00,Wunderground v.1.15,2013-01-18 05:14:00,
2013-01-17 21:34:00,46.2,34.3,30.18,ESE,115,0.0,0.0,63,0.00,,,0.00,Wunderground v.1.15,2013-01-18 05:34:00,
2013-01-17 21:40:00,46.3,34.4,30.18,ESE,115,0.0,0.0,63,0.00,,,0.00,Wunderground v.1.15,2013-01-18 05:40:00,
2013-01-17 22:04:00,45.5,34.4,30.18,ESE,115,0.0,0.0,65,0.00,,,0.00,Wunderground v.1.15,2013-01-18 06:04:00,
2013-01-17 22:10:00,45.5,34.0,30.18,ESE,115,0.0,0.0,64,0.00,,,0.00,Wunderground v.1.15,2013-01-18 06:10:00,
2013-01-17 22:15:00,45.5,34.4,30.18,ESE,115,0.0,0.0,65,0.00,,,0.00,Wunderground v.1.15,2013-01-18 06:15:00,
2013-01-17 22:25:00,45.3,34.2,30.18,ESE,115,0.0,0.0,65,0.00,,,0.00,Wunderground v.1.15,2013-01-18 06:25:00,
2013-01-17 22:40:00,45.8,34.3,30.18,ESE,115,0.0,0.0,64,0.00,,,0.00,Wunderground v.1.15,2013-01-18 06:40:00,
2013-01-17 22:45:00,45.7,34.2,30.18,ESE,115,0.0,0.0,64,0.00,,,0.00,Wunderground v.1.15,2013-01-18 06:45:00,
2013-01-17 22:50:00,45.9,34.4,30.18,ESE,115,0.0,0.0,64,0.00,,,0.00,Wunderground v.1.15,2013-01-18 06:50:00,
2013-01-17 23:05:00,45.3,34.2,30.18,ESE,115,0.0,0.0,65,0.00,,,0.00,Wunderground v.1.15,2013-01-18 07:05:00,
2013-01-17 23:10:00,44.9,34.2,30.19,ESE,115,0.0,0.0,66,0.00,,,0.00,Wunderground v.1.15,2013-01-18 07:10:00,
2013-01-17 23:20:00,44.2,33.9,30.19,ESE,115,0.0,0.0,67,0.00,,,0.00,Wunderground v.1.15,2013-01-18 07:20:00,
2013-01-17 23:25:00,44.0,33.7,30.19,ESE,115,0.0,0.0,67,0.00,,,0.00,Wunderground v.1.15,2013-01-18 07:25:00,
2013-01-17 23:35:00,44.0,33.7,30.19,ESE,115,0.0,0.0,67,0.00,,,0.00,Wunderground v.1.15,2013-01-18 07:35:00,
2013-01-17 23:50:00,43.8,33.9,30.19,ESE,115,0.0,0.0,68,0.00,,,0.00,Wunderground v.1.15,2013-01-18 07:50:00,
2013-01-17 23:55:00,44.0,34.1,30.19,ESE,115,0.0,0.0,68,0.00,,,0.00,Wunderground v.1.15,2013-01-18 07:55:00,